Time;durP1;ratioP1;P1;durP2;ratioP2;P2;SDS_P1;SDS_P2;PMS_P1;PMS_P2;Temp;Humidity;BMP_temperature;BMP_pressure;BME280_temperature;BME280_humidity;BME280_pressure;Samples;Min_cycle;Max_cycle;Signal;HPM_P1;HPM_P2
2022/03/02 00:00:08;;;;;;;7.23;2.93;;;;;;;5.54;41.41;101242.78;5035570;28;20048;-78
2022/03/02 00:02:37;;;;;;;7.75;2.95;;;;;;;5.63;40.67;101247.19;5035381;28;20256;-77
2022/03/02 00:05:03;;;;;;;9.57;3.65;;;;;;;5.79;39.56;101243.81;5034683;28;20060;-78
2022/03/02 00:07:29;;;;;;;9.10;3.28;;;;;;;5.69;39.97;101246.59;5034809;28;20033;-79
2022/03/02 00:09:54;;;;;;;8.33;3.10;;;;;;;5.57;40.21;101253.97;5034636;28;20388;-79
2022/03/02 00:12:19;;;;;;;8.10;3.43;;;;;;;5.61;40.42;101254.53;5034561;28;20487;-79
2022/03/02 00:14:45;;;;;;;8.53;3.30;;;;;;;5.43;40.69;101251.84;5035080;28;20063;-79
2022/03/02 00:17:10;;;;;;;9.65;3.10;;;;;;;5.45;40.99;101254.38;5035276;28;20033;-83
2022/03/02 00:19:37;;;;;;;9.50;3.57;;;;;;;5.38;40.41;101251.44;5035454;28;20049;-79
2022/03/02 00:22:03;;;;;;;8.55;3.50;;;;;;;5.47;40.25;101239.03;5034768;28;20037;-78
2022/03/02 00:24:29;;;;;;;10.23;3.22;;;;;;;5.40;40.80;101240.59;5034901;28;20109;-79
2022/03/02 00:26:54;;;;;;;7.37;3.30;;;;;;;5.51;40.80;101245.75;5034184;28;20037;-79
2022/03/02 00:29:19;;;;;;;6.97;3.00;;;;;;;5.60;40.65;101231.47;5035516;28;20041;-79
2022/03/02 00:31:45;;;;;;;13.23;4.03;;;;;;;5.44;41.35;101242.00;5036772;28;20790;-78
2022/03/02 00:34:11;;;;;;;8.35;3.30;;;;;;;5.39;41.08;101236.25;5037318;28;20469;-78
2022/03/02 00:36:36;;;;;;;7.43;2.83;;;;;;;5.37;41.94;101231.09;5037893;28;20083;-81
2022/03/02 00:39:02;;;;;;;8.43;3.50;;;;;;;5.40;42.43;101235.25;5037922;28;20124;-79
2022/03/02 00:41:28;;;;;;;8.45;3.65;;;;;;;5.33;41.63;101231.53;5036665;28;20432;-78
2022/03/02 00:43:56;;;;;;;10.80;3.57;;;;;;;5.28;41.35;101239.16;5038083;28;20116;-78
2022/03/02 00:46:23;;;;;;;9.63;3.33;;;;;;;5.22;41.68;101232.56;5035995;28;20121;-78
2022/03/02 00:48:49;;;;;;;9.80;3.40;;;;;;;5.13;42.00;101236.16;5037498;28;20029;-77
2022/03/02 00:51:14;;;;;;;10.40;3.50;;;;;;;5.10;42.56;101226.59;5037114;28;20018;-78
2022/03/02 00:53:40;;;;;;;6.45;2.65;;;;;;;5.07;42.05;101226.06;5037061;28;20439;-78
2022/03/02 00:56:05;;;;;;;7.40;3.63;;;;;;;5.00;42.67;101215.16;5037445;28;20029;-78
2022/03/02 00:58:31;;;;;;;10.40;4.23;;;;;;;5.17;42.04;101217.00;5037690;28;20455;-79
2022/03/02 01:00:59;;;;;;;9.73;3.07;;;;;;;5.07;42.33;101223.38;5036531;28;20611;-79
2022/03/02 01:03:27;;;;;;;7.07;2.88;;;;;;;4.97;42.52;101211.94;5038903;28;20076;-80
2022/03/02 01:05:52;;;;;;;11.55;3.90;;;;;;;4.93;43.25;101213.22;5040281;28;20086;-80
2022/03/02 01:08:27;;;;;;;9.77;2.70;;;;;;;4.87;43.33;101206.63;5040037;28;20528;-79
2022/03/02 01:10:52;;;;;;;8.10;2.70;;;;;;;4.91;43.44;101197.34;5035814;28;20611;-78
2022/03/02 01:13:18;;;;;;;8.45;3.40;;;;;;;5.01;43.09;101199.97;5036850;28;20064;-78
2022/03/02 01:15:43;;;;;;;7.97;3.78;;;;;;;4.84;43.62;101197.09;5035746;28;20060;-78
2022/03/02 01:18:08;;;;;;;11.07;3.47;;;;;;;4.76;43.51;101202.34;5036872;28;20032;-78
2022/03/02 01:20:34;;;;;;;9.90;3.57;;;;;;;4.85;43.50;101197.94;5036106;28;20384;-78
2022/03/02 01:22:59;;;;;;;7.40;3.08;;;;;;;4.79;44.18;101202.06;5035066;28;20030;-78
2022/03/02 01:25:27;;;;;;;7.77;3.30;;;;;;;4.71;44.26;101201.94;5037451;28;20128;-78
2022/03/02 01:27:53;;;;;;;11.90;3.50;;;;;;;4.75;43.73;101200.66;5037330;28;20116;-78
2022/03/02 01:30:21;;;;;;;7.57;3.10;;;;;;;4.68;44.13;101194.22;5036951;28;20447;-78
2022/03/02 01:32:52;;;;;;;10.23;4.05;;;;;;;4.70;43.78;101192.25;5036988;28;20059;-84
2022/03/02 01:35:18;;;;;;;9.23;3.47;;;;;;;4.66;44.00;101195.38;5036937;28;20357;-79
2022/03/02 01:37:43;;;;;;;9.25;3.63;;;;;;;4.81;43.72;101184.06;5037048;28;20029;-78
2022/03/02 01:40:12;;;;;;;8.25;3.20;;;;;;;4.71;44.19;101190.41;5036228;28;20188;-78
2022/03/02 01:42:44;;;;;;;8.98;3.30;;;;;;;4.56;44.34;101183.88;5035426;28;20036;-78
2022/03/02 01:45:14;;;;;;;11.15;3.80;;;;;;;4.38;44.87;101173.16;5036966;28;20375;-78
2022/03/02 01:47:42;;;;;;;10.32;4.07;;;;;;;4.56;44.47;101173.22;5037987;28;20025;-78
2022/03/02 01:50:16;;;;;;;9.13;3.58;;;;;;;4.43;45.17;101170.91;5037012;28;20110;-80
2022/03/02 01:52:41;;;;;;;8.85;3.22;;;;;;;4.32;45.17;101169.22;5035542;28;20029;-79
2022/03/02 01:55:16;;;;;;;7.68;3.25;;;;;;;4.38;44.54;101182.00;5035175;28;20040;-78
2022/03/02 01:57:42;;;;;;;8.02;3.20;;;;;;;4.36;44.02;101175.97;5035884;28;20384;-79
2022/03/02 02:00:21;;;;;;;9.85;3.50;;;;;;;4.28;44.34;101172.38;5037088;28;20033;-79
2022/03/02 02:02:48;;;;;;;9.60;3.55;;;;;;;4.35;43.87;101165.44;5037074;28;20065;-78
2022/03/02 02:05:17;;;;;;;10.98;3.97;;;;;;;4.21;44.33;101160.59;5036108;28;20391;-80
2022/03/02 02:07:45;;;;;;;9.90;4.25;;;;;;;4.29;44.52;101152.69;5036792;28;20056;-80
2022/03/02 02:10:11;;;;;;;7.68;2.70;;;;;;;4.15;44.71;101154.84;5035972;28;20056;-78
2022/03/02 02:12:37;;;;;;;5.38;2.70;;;;;;;4.35;44.47;101157.44;5034946;28;20391;-78
2022/03/02 02:15:22;;;;;;;7.70;2.80;;;;;;;4.27;45.39;101150.19;5035342;28;20105;-78
2022/03/02 02:17:48;;;;;;;12.27;3.58;;;;;;;4.12;46.16;101152.44;5035573;28;20371;-78
2022/03/02 02:20:13;;;;;;;7.87;3.17;;;;;;;4.21;46.92;101153.41;5035112;28;20108;-79
2022/03/02 02:22:45;;;;;;;11.60;4.13;;;;;;;3.93;47.86;101154.34;5034680;28;20037;-77
2022/03/02 02:25:11;;;;;;;10.50;3.20;;;;;;;3.89;48.36;101150.28;5034991;28;20055;-78
2022/03/02 02:27:37;;;;;;;;;;;;;;;3.78;48.93;101153.94;5035217;28;20033;-77
2022/03/02 02:30:04;;;;;;;9.97;3.47;;;;;;;3.69;49.58;101160.16;5035397;28;19967;-78
2022/03/02 02:32:30;;;;;;;7.60;2.85;;;;;;;3.80;48.62;101149.31;5033802;28;20461;-78
2022/03/02 02:34:57;;;;;;;9.20;3.45;;;;;;;3.60;49.22;101147.66;5035274;28;20087;-78
2022/03/02 02:37:24;;;;;;;8.02;3.40;;;;;;;3.76;48.56;101150.63;5035324;28;20124;-79
2022/03/02 02:39:58;;;;;;;8.77;3.60;;;;;;;3.70;48.97;101146.69;5034896;28;20040;-77
2022/03/02 02:42:24;;;;;;;7.60;3.03;;;;;;;3.65;49.10;101132.94;5034966;28;20025;-77
2022/03/02 02:44:49;;;;;;;10.75;3.65;;;;;;;3.69;48.92;101131.66;5035008;28;20469;-77
2022/03/02 02:47:15;;;;;;;9.90;3.85;;;;;;;3.92;47.56;101121.53;5035311;28;20175;-77
2022/03/02 02:49:40;;;;;;;7.67;3.00;;;;;;;3.87;48.45;101126.44;5034950;28;20435;-78
2022/03/02 02:52:06;;;;;;;7.63;3.13;;;;;;;3.88;47.30;101121.94;5035561;28;20021;-78
2022/03/02 02:54:31;;;;;;;8.35;3.78;;;;;;;3.91;46.28;101129.66;5035392;28;20520;-80
2022/03/02 02:56:56;;;;;;;7.07;3.37;;;;;;;3.91;46.31;101124.34;5036101;28;20052;-78
2022/03/02 02:59:22;;;;;;;9.33;3.53;;;;;;;3.99;45.91;101130.59;5035992;28;20060;-78
2022/03/02 03:01:47;;;;;;;9.20;3.87;;;;;;;3.95;46.08;101126.53;5037181;28;20025;-78
2022/03/02 03:04:13;;;;;;;12.57;2.97;;;;;;;3.86;46.27;101121.25;5038500;28;20095;-78
2022/03/02 03:06:38;;;;;;;9.23;3.47;;;;;;;3.86;45.57;101126.59;5037365;28;20025;-78
2022/03/02 03:09:04;;;;;;;11.18;3.55;;;;;;;3.94;46.12;101121.38;5037807;28;20045;-78
2022/03/02 03:11:29;;;;;;;10.98;3.28;;;;;;;3.96;45.68;101117.56;5034069;28;20033;-82
2022/03/02 03:13:55;;;;;;;9.98;3.83;;;;;;;4.00;46.14;101116.28;5035055;28;20037;-77
2022/03/02 03:16:20;;;;;;;8.53;3.60;;;;;;;3.91;46.01;101113.66;5033804;28;20032;-78
2022/03/02 03:18:45;;;;;;;10.53;3.50;;;;;;;3.96;45.63;101111.38;5035125;28;20033;-78
2022/03/02 03:21:11;;;;;;;8.20;2.93;;;;;;;3.96;45.44;101104.22;5034953;28;20113;-78
2022/03/02 03:23:37;;;;;;;9.60;3.22;;;;;;;4.07;45.41;101105.91;5035498;28;20041;-78
2022/03/02 03:26:02;;;;;;;7.65;3.40;;;;;;;3.91;46.44;101101.19;5035607;28;20045;-79
2022/03/02 03:28:28;;;;;;;7.40;2.95;;;;;;;3.94;46.09;101103.53;5034481;28;20021;-81
2022/03/02 03:30:54;;;;;;;12.38;3.53;;;;;;;4.02;46.28;101098.31;5037321;28;20171;-77
2022/03/02 03:33:20;;;;;;;10.50;3.67;;;;;;;3.80;46.76;101098.66;5036633;28;20040;-78
2022/03/02 03:35:45;;;;;;;10.03;3.77;;;;;;;3.76;47.59;101100.78;5037981;28;20033;-78
2022/03/02 03:38:10;;;;;;;8.33;3.37;;;;;;;3.80;47.77;101107.50;5038511;28;20033;-78
2022/03/02 03:40:36;;;;;;;8.27;3.07;;;;;;;3.78;47.61;101103.31;5037833;28;20032;-77
2022/03/02 03:43:01;;;;;;;9.07;3.20;;;;;;;3.82;47.80;101110.88;5034577;28;20347;-78
2022/03/02 03:45:27;;;;;;;7.97;3.45;;;;;;;3.69;48.12;101115.69;5034125;28;20037;-81
2022/03/02 03:47:53;;;;;;;10.65;3.30;;;;;;;3.66;47.85;101109.78;5033782;28;20369;-77
2022/03/02 03:50:19;;;;;;;8.57;3.30;;;;;;;3.77;47.60;101114.94;5034173;28;20030;-77
2022/03/02 03:52:45;;;;;;;9.45;3.50;;;;;;;3.87;47.09;101113.13;5034241;28;20089;-77
2022/03/02 03:55:11;;;;;;;8.73;3.30;;;;;;;3.83;47.25;101109.88;5034829;28;20053;-78
2022/03/02 03:57:37;;;;;;;9.85;3.70;;;;;;;3.80;46.91;101110.16;5035954;28;20030;-78
2022/03/02 04:00:06;;;;;;;7.50;2.97;;;;;;;3.82;47.06;101112.69;5034374;28;20042;-78
2022/03/02 04:02:31;;;;;;;9.48;3.90;;;;;;;3.88;46.46;101113.94;5035577;28;20037;-78
2022/03/02 04:04:57;;;;;;;9.17;3.73;;;;;;;3.87;46.75;101109.59;5037690;28;20053;-78
2022/03/02 04:07:22;;;;;;;7.13;3.00;;;;;;;3.83;46.97;101099.22;5045949;28;20343;-79
2022/03/02 04:09:48;;;;;;;8.18;3.28;;;;;;;3.86;46.19;101099.94;5047632;28;20468;-77
2022/03/02 04:12:14;;;;;;;9.40;3.10;;;;;;;3.90;46.23;101101.31;5038198;28;20030;-81
2022/03/02 04:14:40;;;;;;;7.93;3.30;;;;;;;3.82;47.10;101100.22;5038166;28;20443;-77
2022/03/02 04:17:05;;;;;;;;;;;;;;;3.81;46.71;101097.69;5038213;28;20125;-77
2022/03/02 04:19:30;;;;;;;8.13;3.72;;;;;;;3.87;46.58;101097.13;5037812;28;19937;-77
2022/03/02 04:21:56;;;;;;;8.53;3.00;;;;;;;3.76;47.89;101092.78;5037759;28;20029;-77
2022/03/02 04:24:21;;;;;;;11.67;3.13;;;;;;;3.61;49.31;101075.56;5037426;28;20038;-77
2022/03/02 04:26:46;;;;;;;7.83;3.00;;;;;;;3.65;49.87;101082.31;5037585;28;20080;-76
2022/03/02 04:29:12;;;;;;;8.67;3.83;;;;;;;3.61;50.89;101080.06;5037443;28;20053;-81
2022/03/02 04:31:37;;;;;;;12.30;4.57;;;;;;;3.19;52.39;101077.75;5037882;28;20037;-77
2022/03/02 04:34:02;;;;;;;8.37;3.47;;;;;;;3.34;52.46;101079.00;5037405;28;20357;-77
2022/03/02 04:36:28;;;;;;;9.57;3.70;;;;;;;3.05;53.55;101075.50;5037544;28;20372;-77
2022/03/02 04:38:53;;;;;;;9.07;3.40;;;;;;;2.98;53.68;101072.56;5035708;28;20048;-77
2022/03/02 04:41:18;;;;;;;9.97;4.07;;;;;;;3.04;53.86;101071.19;5037138;28;20021;-77
2022/03/02 04:43:45;;;;;;;10.17;4.23;;;;;;;3.06;54.28;101070.03;5037097;28;20029;-78
2022/03/02 04:46:13;;;;;;;8.68;3.83;;;;;;;3.15;52.61;101068.38;5037593;28;20052;-83
2022/03/02 04:48:38;;;;;;;11.48;4.78;;;;;;;3.01;53.02;101060.81;5035849;28;20026;-76
2022/03/02 04:51:04;;;;;;;9.30;3.73;;;;;;;3.08;53.23;101069.91;5036696;28;20113;-78
2022/03/02 04:53:29;;;;;;;12.23;4.37;;;;;;;3.18;52.46;101067.25;5035736;28;20053;-77
2022/03/02 04:55:54;;;;;;;10.53;3.90;;;;;;;3.21;52.10;101075.81;5036719;28;20083;-78
2022/03/02 04:58:20;;;;;;;6.77;2.97;;;;;;;3.34;51.46;101067.50;5036539;28;20053;-77
2022/03/02 05:00:45;;;;;;;13.68;4.25;;;;;;;3.14;52.10;101070.19;5037135;28;20025;-78
2022/03/02 05:03:11;;;;;;;8.57;3.67;;;;;;;3.25;51.48;101066.53;5037587;28;20064;-78
2022/03/02 05:05:38;;;;;;;9.93;3.47;;;;;;;3.12;51.97;101063.31;5035731;28;20026;-82
2022/03/02 05:08:05;;;;;;;8.25;3.13;;;;;;;3.12;52.08;101069.47;5036561;28;20284;-81
2022/03/02 05:10:30;;;;;;;8.50;3.72;;;;;;;3.25;51.74;101069.19;5036071;28;20086;-78
2022/03/02 05:12:56;;;;;;;9.48;3.50;;;;;;;3.20;51.46;101060.81;5035931;28;20041;-76
2022/03/02 05:15:23;;;;;;;10.20;3.80;;;;;;;3.21;51.63;101064.31;5036290;28;20487;-77
2022/03/02 05:17:49;;;;;;;10.25;4.10;;;;;;;3.19;52.31;101061.78;5034833;28;20029;-77
2022/03/02 05:20:16;;;;;;;11.73;3.92;;;;;;;3.16;52.65;101062.06;5036553;28;20392;-78
2022/03/02 05:22:42;;;;;;;9.45;3.63;;;;;;;2.94;54.58;101057.00;5037037;28;20021;-77
2022/03/02 05:25:10;;;;;;;10.93;3.72;;;;;;;2.80;55.91;101058.28;5043539;28;20037;-78
2022/03/02 05:27:35;;;;;;;10.90;4.00;;;;;;;2.73;57.02;101065.97;5044319;28;20026;-78
2022/03/02 05:30:03;;;;;;;9.80;4.43;;;;;;;2.57;58.24;101062.16;5042706;28;20419;-78
2022/03/02 05:32:28;;;;;;;11.90;4.70;;;;;;;2.47;58.41;101061.31;5041032;28;20042;-78
2022/03/02 05:34:53;;;;;;;10.30;3.70;;;;;;;2.51;57.58;101063.53;5037913;28;20025;-78
2022/03/02 05:37:19;;;;;;;9.73;3.53;;;;;;;2.42;58.34;101061.72;5036849;28;20494;-77
2022/03/02 05:39:45;;;;;;;14.27;4.82;;;;;;;2.34;58.74;101061.56;5035815;28;20456;-79
2022/03/02 05:42:10;;;;;;;14.27;4.63;;;;;;;2.27;59.30;101065.75;5037314;28;20038;-78
2022/03/02 05:44:35;;;;;;;8.97;4.07;;;;;;;2.18;60.23;101055.91;5037484;28;20033;-78
2022/03/02 05:47:01;;;;;;;13.53;4.77;;;;;;;2.14;59.64;101060.69;5037270;28;20112;-79
2022/03/02 05:49:27;;;;;;;13.35;4.57;;;;;;;2.23;58.99;101057.19;5036683;28;20029;-78
2022/03/02 05:51:52;;;;;;;10.70;4.70;;;;;;;2.12;59.41;101061.78;5035254;28;20063;-78
2022/03/02 05:54:18;;;;;;;14.02;3.67;;;;;;;2.18;58.92;101053.25;5036371;28;20130;-76
2022/03/02 05:56:44;;;;;;;11.15;4.15;;;;;;;2.40;57.58;101056.53;5034801;28;20037;-78
2022/03/02 05:59:11;;;;;;;11.52;4.00;;;;;;;2.35;58.26;101058.75;5047203;28;20044;-82
2022/03/02 06:01:38;;;;;;;10.00;3.90;;;;;;;2.48;57.49;101057.69;5035831;28;20053;-80
2022/03/02 06:04:05;;;;;;;9.95;4.00;;;;;;;2.55;57.05;101058.81;5034839;28;20029;-81
2022/03/02 06:06:35;;;;;;;9.82;3.97;;;;;;;2.40;57.11;101045.91;5035007;28;20132;-78
2022/03/02 06:09:03;;;;;;;13.73;4.93;;;;;;;2.40;57.93;101045.91;5034804;28;20041;-78
2022/03/02 06:11:29;;;;;;;13.15;4.20;;;;;;;2.43;56.60;101050.94;5035161;28;20036;-78
2022/03/02 06:13:55;;;;;;;12.02;4.07;;;;;;;2.40;56.40;101053.03;5035519;28;20025;-79
2022/03/02 06:16:21;;;;;;;11.40;3.85;;;;;;;2.39;56.58;101052.19;5035613;28;20076;-79
2022/03/02 06:18:46;;;;;;;11.07;4.10;;;;;;;2.34;56.47;101045.59;5035815;28;20037;-79
2022/03/02 06:21:18;;;;;;;13.38;4.05;;;;;;;2.38;56.31;101047.00;5034263;28;20045;-82
2022/03/02 06:23:44;;;;;;;9.25;4.00;;;;;;;2.51;56.52;101054.75;5035582;28;20480;-77
2022/03/02 06:26:09;;;;;;;10.55;4.90;;;;;;;2.29;56.89;101058.47;5035501;28;20033;-78
2022/03/02 06:28:35;;;;;;;11.20;4.23;;;;;;;2.55;55.63;101050.81;5034909;28;20061;-77
2022/03/02 06:31:00;;;;;;;9.10;4.30;;;;;;;2.39;56.35;101054.84;5035965;28;20252;-83
2022/03/02 06:33:26;;;;;;;10.55;4.05;;;;;;;2.57;55.33;101056.84;5036561;28;20370;-78
2022/03/02 06:35:51;;;;;;;12.37;4.40;;;;;;;2.53;54.80;101060.75;5034752;28;20079;-78
2022/03/02 06:38:17;;;;;;;13.73;4.60;;;;;;;2.65;53.86;101055.19;5035818;28;20302;-78
2022/03/02 06:40:59;;;;;;;11.60;3.70;;;;;;;2.77;53.13;101056.72;5034755;28;20026;-79
2022/03/02 06:43:26;;;;;;;9.15;4.15;;;;;;;2.83;52.18;101060.66;5035462;28;20103;-78
2022/03/02 06:45:58;;;;;;;12.38;4.50;;;;;;;2.83;52.21;101073.13;5034146;28;20036;-78
2022/03/02 06:48:28;;;;;;;10.18;3.42;;;;;;;2.75;52.56;101063.16;5035069;28;20029;-79
2022/03/02 06:50:54;;;;;;;9.38;3.20;;;;;;;2.89;51.73;101076.06;5036149;28;20021;-78
2022/03/02 06:53:35;;;;;;;13.38;5.10;;;;;;;2.97;51.87;101068.22;5036427;28;20026;-80
2022/03/02 06:56:04;;;;;;;11.07;3.72;;;;;;;3.17;50.66;101073.56;5034870;28;20025;-78
2022/03/02 06:58:39;;;;;;;10.52;3.63;;;;;;;3.06;50.33;101071.84;5037177;28;20041;-84
2022/03/02 07:01:08;;;;;;;9.95;4.00;;;;;;;3.05;50.92;101073.69;5037689;28;20060;-79
2022/03/02 07:03:40;;;;;;;8.07;3.30;;;;;;;3.02;50.52;101060.69;5037232;28;20068;-80
2022/03/02 07:06:05;;;;;;;9.10;3.35;;;;;;;3.18;51.02;101068.09;5038370;28;20033;-80
2022/03/02 07:08:32;;;;;;;9.73;3.83;;;;;;;3.29;49.80;101062.59;5037368;28;20030;-80
2022/03/02 07:10:59;;;;;;;12.25;4.15;;;;;;;3.33;49.97;101061.34;5037131;28;20030;-79
2022/03/02 07:13:27;;;;;;;12.85;4.20;;;;;;;3.35;50.75;101066.53;5037643;28;20033;-81
2022/03/02 07:15:52;;;;;;;13.25;4.28;;;;;;;3.31;49.38;101078.44;5036918;28;20040;-80
2022/03/02 07:18:18;;;;;;;8.10;3.35;;;;;;;3.39;49.08;101076.75;5036721;28;20041;-80
2022/03/02 07:20:46;;;;;;;14.13;4.28;;;;;;;3.36;49.14;101076.19;5036656;28;20033;-81
2022/03/02 07:23:16;;;;;;;9.38;3.92;;;;;;;3.22;49.28;101071.31;5036876;28;20044;-81
2022/03/02 07:25:44;;;;;;;9.63;3.60;;;;;;;3.23;49.60;101067.63;5035625;28;20426;-81
2022/03/02 07:28:11;;;;;;;10.38;3.78;;;;;;;3.39;48.89;101067.94;5036876;28;20064;-79
2022/03/02 07:30:37;;;;;;;6.32;3.22;;;;;;;3.17;50.08;101058.41;5037680;28;20064;-80
2022/03/02 07:33:03;;;;;;;;;;;;;;;3.34;49.39;101067.50;5037649;28;20025;-79
2022/03/02 07:35:31;;;;;;;8.27;3.63;;;;;;;3.31;49.67;101059.78;5034807;28;20266;-80
2022/03/02 07:37:57;;;;;;;9.57;3.03;;;;;;;3.43;49.91;101074.63;5036657;28;20119;-79
2022/03/02 07:40:23;;;;;;;9.70;3.45;;;;;;;3.32;49.56;101067.66;5035329;28;20033;-79
2022/03/02 07:42:49;;;;;;;10.13;3.95;;;;;;;3.38;49.59;101067.09;5034875;28;20060;-80
2022/03/02 07:45:14;;;;;;;9.73;3.58;;;;;;;3.44;50.33;101065.66;5037335;28;20417;-80
2022/03/02 07:47:40;;;;;;;9.03;3.53;;;;;;;3.36;50.37;101066.38;5036456;28;20083;-86
2022/03/02 07:50:07;;;;;;;10.40;3.60;;;;;;;3.49;49.82;101058.91;5036441;28;20044;-79
2022/03/02 07:52:36;;;;;;;10.73;3.75;;;;;;;3.46;51.02;101061.03;5036617;28;20375;-81
2022/03/02 07:55:09;;;;;;;10.55;3.50;;;;;;;3.64;49.72;101063.78;5035878;28;20021;-81
2022/03/02 07:57:35;;;;;;;10.02;4.05;;;;;;;3.61;49.75;101059.59;5033267;28;20079;-79
2022/03/02 08:00:03;;;;;;;11.45;3.60;;;;;;;3.56;49.96;101063.69;5034640;28;20068;-80
2022/03/02 08:02:30;;;;;;;9.68;4.00;;;;;;;3.44;50.53;101053.19;5035025;28;20025;-80
2022/03/02 08:04:56;;;;;;;10.43;4.40;;;;;;;3.57;51.08;101057.38;5035112;28;20026;-80
2022/03/02 08:07:22;;;;;;;10.07;3.83;;;;;;;3.68;51.44;101059.84;5034856;28;20029;-79
2022/03/02 08:09:51;;;;;;;10.52;3.80;;;;;;;3.90;51.01;101062.19;5034926;28;20060;-80
2022/03/02 08:12:20;;;;;;;10.32;4.10;;;;;;;3.97;49.25;101062.41;5035339;28;20030;-80
2022/03/02 08:14:45;;;;;;;10.63;4.00;;;;;;;4.09;48.02;101053.25;5034471;28;20056;-79
2022/03/02 08:17:10;;;;;;;8.37;3.53;;;;;;;4.27;47.96;101054.16;5033476;28;20029;-80
2022/03/02 08:19:36;;;;;;;7.53;3.63;;;;;;;4.48;45.93;101053.84;5034315;28;20029;-79
2022/03/02 08:22:09;;;;;;;12.75;3.60;;;;;;;4.51;46.92;101051.72;5035397;28;20032;-80
2022/03/02 08:24:41;;;;;;;9.05;3.33;;;;;;;4.64;46.51;101050.56;5034870;28;20069;-79
2022/03/02 08:27:09;;;;;;;9.65;3.70;;;;;;;4.76;46.50;101042.16;5033405;28;20037;-78
2022/03/02 08:29:37;;;;;;;10.82;3.55;;;;;;;4.99;46.08;101047.03;5033608;28;20457;-78
2022/03/02 08:32:04;;;;;;;7.20;3.38;;;;;;;5.04;45.46;101042.91;5034659;28;20531;-79
2022/03/02 08:34:34;;;;;;;6.50;3.28;;;;;;;5.24;43.56;101033.72;5033686;28;20528;-79
2022/03/02 08:37:01;;;;;;;9.75;3.42;;;;;;;5.23;44.83;101032.03;5035618;28;20037;-80
2022/03/02 08:39:27;;;;;;;11.57;4.10;;;;;;;5.43;43.65;101024.66;5035462;28;20452;-79
2022/03/02 08:41:54;;;;;;;36.72;11.40;;;;;;;5.56;42.11;101024.25;5035409;28;20085;-79
2022/03/02 08:44:20;;;;;;;15.73;4.72;;;;;;;5.66;42.67;101019.63;5033655;28;20041;-78
2022/03/02 08:46:46;;;;;;;;;;;;;;;5.66;42.68;101021.47;5033547;28;20037;-79
2022/03/02 08:49:13;;;;;;;10.65;3.47;;;;;;;5.80;44.01;101026.22;5033639;28;19959;-79
2022/03/02 08:51:39;;;;;;;8.35;2.40;;;;;;;6.04;41.97;101020.19;5034960;28;20048;-80
2022/03/02 08:54:05;;;;;;;8.63;4.00;;;;;;;6.10;43.07;101015.00;5039953;28;20041;-81
2022/03/02 08:56:35;;;;;;;7.50;2.88;;;;;;;6.32;41.66;101012.75;5038357;28;20034;-79
2022/03/02 08:59:01;;;;;;;7.45;3.60;;;;;;;6.39;42.45;101013.78;5040824;28;20029;-86
2022/03/02 09:01:29;;;;;;;7.63;3.55;;;;;;;6.49;41.51;101012.63;5040971;28;20166;-80
2022/03/02 09:03:58;;;;;;;8.52;4.18;;;;;;;6.60;42.15;101009.66;5039578;28;20372;-79
2022/03/02 09:06:27;;;;;;;10.13;3.70;;;;;;;6.90;39.96;101018.06;5038928;28;20044;-80
2022/03/02 09:08:54;;;;;;;7.65;3.53;;;;;;;7.02;39.36;101019.38;5041279;28;20032;-86
2022/03/02 09:11:20;;;;;;;8.30;3.53;;;;;;;7.04;39.13;101017.38;5042308;28;20040;-82
2022/03/02 09:13:47;;;;;;;7.70;3.20;;;;;;;7.35;39.27;101008.63;5046103;28;20124;-81
2022/03/02 09:16:12;;;;;;;6.43;3.28;;;;;;;7.42;38.00;100999.75;5040511;28;20061;-81
2022/03/02 09:18:38;;;;;;;7.80;2.95;;;;;;;7.55;36.50;101012.63;5040119;28;20041;-81
2022/03/02 09:21:06;;;;;;;11.38;3.20;;;;;;;7.62;36.80;101010.97;5040459;28;20037;-82
2022/03/02 09:23:34;;;;;;;6.55;2.90;;;;;;;7.73;36.36;101009.75;5042575;28;20053;-81
2022/03/02 09:26:12;;;;;;;7.88;3.53;;;;;;;7.70;35.49;101007.44;5044810;28;20036;-81
2022/03/02 09:28:42;;;;;;;8.98;3.53;;;;;;;7.59;37.38;101006.75;5044851;28;20049;-79
2022/03/02 09:31:09;;;;;;;7.30;3.05;;;;;;;7.86;35.24;101004.69;5041355;28;20526;-80
2022/03/02 09:33:36;;;;;;;8.82;3.63;;;;;;;7.81;34.71;101001.69;5042353;28;20035;-79
2022/03/02 09:36:05;;;;;;;7.68;2.92;;;;;;;7.60;36.26;101007.59;5039653;28;20060;-80
2022/03/02 09:38:33;;;;;;;7.53;3.40;;;;;;;8.04;37.20;101007.13;5040194;28;20033;-80
2022/03/02 09:41:08;;;;;;;9.98;3.15;;;;;;;8.06;35.55;101005.13;5041428;28;20144;-83
2022/03/02 09:43:35;;;;;;;8.98;3.38;;;;;;;8.06;35.40;101002.44;5042481;28;20041;-82
2022/03/02 09:46:06;;;;;;;6.50;2.97;;;;;;;8.18;34.92;101014.44;5040442;28;20118;-80
2022/03/02 09:48:36;;;;;;;8.07;3.42;;;;;;;8.35;33.22;101008.03;5040128;28;20105;-79
2022/03/02 09:51:05;;;;;;;7.97;3.38;;;;;;;8.19;33.09;101008.06;5043848;28;20072;-81
2022/03/02 09:53:32;;;;;;;9.05;2.88;;;;;;;8.24;33.42;101019.94;5041414;28;20033;-83
2022/03/02 09:56:02;;;;;;;8.25;3.55;;;;;;;8.29;33.24;101011.38;5038020;28;20459;-80
2022/03/02 09:58:29;;;;;;;7.50;3.35;;;;;;;8.38;34.66;101010.34;5038841;28;20109;-82
2022/03/02 10:00:57;;;;;;;9.48;3.28;;;;;;;8.50;33.29;101006.25;5036430;28;20076;-79
2022/03/02 10:03:30;;;;;;;8.00;3.13;;;;;;;8.55;32.71;101003.88;5040732;28;20026;-80
2022/03/02 10:06:01;;;;;;;9.25;3.45;;;;;;;8.53;34.32;100997.84;5038228;28;20026;-85
2022/03/02 10:08:33;;;;;;;10.43;4.25;;;;;;;8.56;34.19;101002.03;5038322;28;20025;-81
2022/03/02 10:11:05;;;;;;;16.17;4.57;;;;;;;8.54;32.07;100999.53;5037742;28;20171;-81
2022/03/02 10:13:32;;;;;;;13.55;4.32;;;;;;;8.64;31.30;101000.09;5037696;28;20064;-79
2022/03/02 10:16:00;;;;;;;10.27;3.63;;;;;;;8.61;31.60;100996.94;5035761;28;20572;-79
2022/03/02 10:18:30;;;;;;;7.60;3.28;;;;;;;8.62;32.01;101001.28;5038371;28;20037;-80
2022/03/02 10:21:00;;;;;;;7.63;2.67;;;;;;;8.56;32.04;100992.13;5037873;28;20033;-80
2022/03/02 10:23:41;;;;;;;7.68;3.15;;;;;;;8.60;32.05;100990.72;5039412;28;20025;-82
2022/03/02 10:26:13;;;;;;;7.57;2.78;;;;;;;9.10;32.59;100994.75;5040774;28;20483;-78
2022/03/02 10:29:00;;;;;;;7.25;2.88;;;;;;;8.99;31.29;100992.47;5041916;28;20055;-78
2022/03/02 10:31:39;;;;;;;7.75;3.25;;;;;;;8.99;31.57;100987.91;5041250;28;20029;-80
2022/03/02 10:34:26;;;;;;;6.70;3.03;;;;;;;9.01;31.60;100985.88;5039697;28;20034;-82
2022/03/02 10:37:15;;;;;;;9.30;3.45;;;;;;;9.07;31.53;100987.03;5039108;28;20057;-79
2022/03/02 10:40:06;;;;;;;6.63;2.83;;;;;;;9.10;31.37;100980.47;5032345;28;20041;-81
2022/03/02 10:42:41;;;;;;;7.43;3.05;;;;;;;9.15;30.33;100981.56;5035302;28;20026;-82
2022/03/02 10:45:28;;;;;;;6.85;2.80;;;;;;;9.17;29.73;100979.53;5034978;28;20111;-79
2022/03/02 10:47:57;;;;;;;;;;;;;;;9.26;30.13;100973.06;5037423;28;20025;-79
2022/03/02 10:50:28;;;;;;;5.38;2.35;;;;;;;9.40;29.80;100966.03;5036731;28;19913;-80
2022/03/02 10:52:56;;;;;;;8.43;3.17;;;;;;;9.45;30.09;100968.19;5035793;28;20059;-80
2022/03/02 10:55:23;;;;;;;6.47;2.97;;;;;;;9.67;29.73;100969.97;5036557;28;20041;-80
2022/03/02 10:57:51;;;;;;;5.97;3.03;;;;;;;9.65;29.97;100980.91;5035989;28;20031;-77
2022/03/02 11:00:19;;;;;;;9.20;2.97;;;;;;;9.68;29.81;100963.53;5035185;28;20077;-79
2022/03/02 11:02:51;;;;;;;7.32;2.72;;;;;;;9.67;30.10;100964.59;5034976;28;20029;-79
2022/03/02 11:05:18;;;;;;;7.35;3.00;;;;;;;9.80;29.37;100972.81;5034614;28;20033;-79
2022/03/02 11:07:43;;;;;;;;;;;;;;;9.62;28.32;100967.00;5033586;28;20045;-77
2022/03/02 11:10:13;;;;;;;9.02;3.15;;;;;;;9.73;28.85;100961.13;5033348;28;19913;-77
2022/03/02 11:12:44;;;;;;;6.30;2.75;;;;;;;9.78;28.78;100957.88;5032974;28;20025;-79
2022/03/02 11:15:11;;;;;;;7.60;3.38;;;;;;;9.93;29.25;100962.22;5033871;28;20025;-81
2022/03/02 11:17:49;;;;;;;7.60;3.35;;;;;;;9.88;28.64;100956.56;5033536;28;20039;-78
2022/03/02 11:20:15;;;;;;;5.25;2.75;;;;;;;10.04;29.64;100947.44;5033006;28;20365;-78
2022/03/02 11:22:50;;;;;;;9.70;3.10;;;;;;;10.12;29.47;100950.03;5032771;28;20029;-78
2022/03/02 11:25:16;;;;;;;6.57;2.60;;;;;;;10.21;29.34;100945.41;5034073;28;20076;-79
2022/03/02 11:27:42;;;;;;;7.80;3.03;;;;;;;10.40;28.56;100937.53;5036121;28;20029;-78
2022/03/02 11:30:09;;;;;;;7.75;3.42;;;;;;;10.15;27.31;100932.66;5033569;28;20052;-78
2022/03/02 11:32:37;;;;;;;6.38;2.75;;;;;;;10.21;28.32;100929.25;5035156;28;20033;-77